sensor_id;sensor_type;location;lat;lon;timestamp;pressure;altitude;pressure_sealevel;temperature;humidity
47738;BME280;33502;47.182;27.506;2023-03-26T00:00:39;99146.66;;;9.45;100.00
47738;BME280;33502;47.182;27.506;2023-03-26T00:03:08;99153.97;;;9.40;100.00
47738;BME280;33502;47.182;27.506;2023-03-26T00:05:34;99155.28;;;9.33;100.00
47738;BME280;33502;47.182;27.506;2023-03-26T00:08:00;99149.47;;;9.26;100.00
47738;BME280;33502;47.182;27.506;2023-03-26T00:10:27;99146.34;;;9.19;100.00
47738;BME280;33502;47.182;27.506;2023-03-26T00:12:52;99152.75;;;9.15;100.00
47738;BME280;33502;47.182;27.506;2023-03-26T00:15:18;99159.97;;;9.12;100.00
47738;BME280;33502;47.182;27.506;2023-03-26T00:17:43;99154.84;;;9.09;100.00
47738;BME280;33502;47.182;27.506;2023-03-26T00:20:11;99157.84;;;9.02;100.00
47738;BME280;33502;47.182;27.506;2023-03-26T00:22:37;99163.34;;;8.98;100.00
47738;BME280;33502;47.182;27.506;2023-03-26T00:25:03;99161.25;;;8.89;100.00
47738;BME280;33502;47.182;27.506;2023-03-26T00:27:30;99157.44;;;8.77;100.00
47738;BME280;33502;47.182;27.506;2023-03-26T00:29:56;99158.19;;;8.63;100.00
47738;BME280;33502;47.182;27.506;2023-03-26T00:32:24;99146.66;;;8.48;100.00
47738;BME280;33502;47.182;27.506;2023-03-26T00:34:53;99151.66;;;8.37;100.00
47738;BME280;33502;47.182;27.506;2023-03-26T00:37:20;99165.38;;;8.26;100.00
47738;BME280;33502;47.182;27.506;2023-03-26T00:39:53;99155.44;;;8.14;100.00
47738;BME280;33502;47.182;27.506;2023-03-26T00:42:24;99156.09;;;8.01;100.00
47738;BME280;33502;47.182;27.506;2023-03-26T00:44:50;99163.69;;;7.90;100.00
47738;BME280;33502;47.182;27.506;2023-03-26T00:47:25;99159.03;;;7.78;100.00
47738;BME280;33502;47.182;27.506;2023-03-26T00:49:51;99161.75;;;7.76;100.00
47738;BME280;33502;47.182;27.506;2023-03-26T00:52:17;99168.56;;;7.80;100.00
47738;BME280;33502;47.182;27.506;2023-03-26T00:54:46;99165.94;;;7.80;100.00
47738;BME280;33502;47.182;27.506;2023-03-26T00:57:12;99165.22;;;7.77;100.00
47738;BME280;33502;47.182;27.506;2023-03-26T00:59:39;99171.59;;;7.73;100.00
47738;BME280;33502;47.182;27.506;2023-03-26T01:02:06;99170.09;;;7.67;100.00
47738;BME280;33502;47.182;27.506;2023-03-26T01:04:35;99175.63;;;7.62;100.00
47738;BME280;33502;47.182;27.506;2023-03-26T01:07:12;99181.16;;;7.56;100.00
47738;BME280;33502;47.182;27.506;2023-03-26T01:09:39;99185.09;;;7.48;100.00
47738;BME280;33502;47.182;27.506;2023-03-26T01:12:08;99187.22;;;7.39;100.00
47738;BME280;33502;47.182;27.506;2023-03-26T01:14:35;99192.72;;;7.35;100.00
47738;BME280;33502;47.182;27.506;2023-03-26T01:17:03;99191.19;;;7.31;100.00
47738;BME280;33502;47.182;27.506;2023-03-26T01:22:18;99182.19;;;7.35;100.00
47738;BME280;33502;47.182;27.506;2023-03-26T01:24:44;99187.59;;;7.32;100.00
47738;BME280;33502;47.182;27.506;2023-03-26T01:32:54;99192.38;;;7.23;100.00
47738;BME280;33502;47.182;27.506;2023-03-26T01:40:16;99193.41;;;7.21;100.00
47738;BME280;33502;47.182;27.506;2023-03-26T01:42:46;99192.75;;;7.16;100.00
47738;BME280;33502;47.182;27.506;2023-03-26T01:45:17;99190.41;;;7.10;100.00
47738;BME280;33502;47.182;27.506;2023-03-26T01:47:45;99198.66;;;7.02;100.00
47738;BME280;33502;47.182;27.506;2023-03-26T01:50:11;99186.22;;;6.86;100.00
47738;BME280;33502;47.182;27.506;2023-03-26T01:52:37;99191.09;;;6.75;100.00
47738;BME280;33502;47.182;27.506;2023-03-26T01:55:02;99194.25;;;6.63;100.00
47738;BME280;33502;47.182;27.506;2023-03-26T02:02:33;99192.09;;;6.33;100.00
47738;BME280;33502;47.182;27.506;2023-03-26T02:10:12;99180.38;;;6.20;100.00
47738;BME280;33502;47.182;27.506;2023-03-26T02:12:40;99182.50;;;6.12;100.00
47738;BME280;33502;47.182;27.506;2023-03-26T02:15:06;99181.00;;;6.06;100.00
47738;BME280;33502;47.182;27.506;2023-03-26T02:17:32;99183.06;;;5.98;100.00
47738;BME280;33502;47.182;27.506;2023-03-26T02:19:58;99183.28;;;5.92;100.00
47738;BME280;33502;47.182;27.506;2023-03-26T02:22:30;99189.00;;;5.81;100.00
47738;BME280;33502;47.182;27.506;2023-03-26T02:24:57;99186.66;;;5.73;100.00
47738;BME280;33502;47.182;27.506;2023-03-26T02:27:23;99193.06;;;5.67;100.00
47738;BME280;33502;47.182;27.506;2023-03-26T02:29:49;99190.72;;;5.60;100.00
47738;BME280;33502;47.182;27.506;2023-03-26T02:32:18;99191.84;;;5.54;100.00
47738;BME280;33502;47.182;27.506;2023-03-26T02:34:44;99193.59;;;5.54;100.00
47738;BME280;33502;47.182;27.506;2023-03-26T02:37:10;99198.91;;;5.52;100.00
47738;BME280;33502;47.182;27.506;2023-03-26T02:39:38;99189.34;;;5.51;100.00
47738;BME280;33502;47.182;27.506;2023-03-26T02:42:16;99185.91;;;5.49;100.00
47738;BME280;33502;47.182;27.506;2023-03-26T02:44:46;99182.56;;;5.45;100.00
47738;BME280;33502;47.182;27.506;2023-03-26T02:47:18;99185.38;;;5.41;100.00
47738;BME280;33502;47.182;27.506;2023-03-26T02:49:50;99190.69;;;5.39;100.00
47738;BME280;33502;47.182;27.506;2023-03-26T02:52:28;99195.13;;;5.37;100.00
47738;BME280;33502;47.182;27.506;2023-03-26T02:54:56;99193.47;;;5.35;100.00
47738;BME280;33502;47.182;27.506;2023-03-26T02:57:23;99195.06;;;5.39;100.00
47738;BME280;33502;47.182;27.506;2023-03-26T02:59:52;99188.91;;;5.40;100.00
47738;BME280;33502;47.182;27.506;2023-03-26T03:02:36;99188.91;;;5.40;100.00
47738;BME280;33502;47.182;27.506;2023-03-26T03:05:22;99191.59;;;5.38;100.00
47738;BME280;33502;47.182;27.506;2023-03-26T03:07:58;99199.22;;;5.44;100.00
47738;BME280;33502;47.182;27.506;2023-03-26T03:10:27;99187.44;;;5.55;100.00
47738;BME280;33502;47.182;27.506;2023-03-26T03:12:55;99191.59;;;5.60;100.00
47738;BME280;33502;47.182;27.506;2023-03-26T03:15:21;99193.13;;;5.66;100.00
47738;BME280;33502;47.182;27.506;2023-03-26T03:17:46;99204.28;;;5.71;100.00
47738;BME280;33502;47.182;27.506;2023-03-26T03:20:12;99202.53;;;5.72;100.00
47738;BME280;33502;47.182;27.506;2023-03-26T03:22:38;99214.91;;;5.68;100.00
47738;BME280;33502;47.182;27.506;2023-03-26T03:25:05;99201.97;;;5.63;100.00
47738;BME280;33502;47.182;27.506;2023-03-26T03:27:34;99202.94;;;5.61;100.00
47738;BME280;33502;47.182;27.506;2023-03-26T03:30:05;99209.19;;;5.58;100.00
47738;BME280;33502;47.182;27.506;2023-03-26T03:32:51;99216.38;;;5.53;100.00
47738;BME280;33502;47.182;27.506;2023-03-26T03:35:20;99215.78;;;5.46;100.00
47738;BME280;33502;47.182;27.506;2023-03-26T03:37:50;99210.81;;;5.39;100.00
47738;BME280;33502;47.182;27.506;2023-03-26T03:40:16;99215.41;;;5.34;100.00
47738;BME280;33502;47.182;27.506;2023-03-26T03:42:43;99215.41;;;5.34;100.00
47738;BME280;33502;47.182;27.506;2023-03-26T03:45:10;99212.63;;;5.37;100.00
47738;BME280;33502;47.182;27.506;2023-03-26T03:47:43;99220.16;;;5.46;100.00
47738;BME280;33502;47.182;27.506;2023-03-26T03:50:09;99215.41;;;5.56;100.00
47738;BME280;33502;47.182;27.506;2023-03-26T03:52:39;99220.28;;;5.65;100.00
47738;BME280;33502;47.182;27.506;2023-03-26T03:55:05;99218.44;;;5.67;100.00
47738;BME280;33502;47.182;27.506;2023-03-26T03:57:51;99229.69;;;5.71;100.00
47738;BME280;33502;47.182;27.506;2023-03-26T04:00:19;99221.75;;;5.72;100.00
47738;BME280;33502;47.182;27.506;2023-03-26T04:02:57;99215.75;;;5.68;100.00
47738;BME280;33502;47.182;27.506;2023-03-26T04:05:26;99219.19;;;5.71;100.00
47738;BME280;33502;47.182;27.506;2023-03-26T04:07:52;99211.72;;;5.82;100.00
47738;BME280;33502;47.182;27.506;2023-03-26T04:10:41;99218.22;;;5.95;100.00
47738;BME280;33502;47.182;27.506;2023-03-26T04:13:28;99214.38;;;6.04;100.00
47738;BME280;33502;47.182;27.506;2023-03-26T04:16:14;99214.94;;;6.11;100.00
47738;BME280;33502;47.182;27.506;2023-03-26T04:18:42;99216.50;;;6.15;100.00
47738;BME280;33502;47.182;27.506;2023-03-26T04:21:13;99211.19;;;6.16;100.00
47738;BME280;33502;47.182;27.506;2023-03-26T04:23:40;99210.28;;;6.17;100.00
47738;BME280;33502;47.182;27.506;2023-03-26T04:26:21;99218.88;;;6.21;100.00
47738;BME280;33502;47.182;27.506;2023-03-26T04:29:03;99227.50;;;6.24;100.00
47738;BME280;33502;47.182;27.506;2023-03-26T04:31:31;99230.06;;;6.26;100.00
47738;BME280;33502;47.182;27.506;2023-03-26T04:34:04;99233.41;;;6.30;100.00
47738;BME280;33502;47.182;27.506;2023-03-26T04:36:33;99242.81;;;6.35;100.00
47738;BME280;33502;47.182;27.506;2023-03-26T04:39:01;99242.50;;;6.43;100.00
47738;BME280;33502;47.182;27.506;2023-03-26T04:41:48;99255.19;;;6.54;100.00
47738;BME280;33502;47.182;27.506;2023-03-26T04:44:17;99258.34;;;6.62;100.00
47738;BME280;33502;47.182;27.506;2023-03-26T04:46:52;99264.03;;;6.72;100.00
47738;BME280;33502;47.182;27.506;2023-03-26T04:49:29;99272.53;;;6.78;100.00
47738;BME280;33502;47.182;27.506;2023-03-26T04:51:55;99273.09;;;6.85;100.00
47738;BME280;33502;47.182;27.506;2023-03-26T04:54:59;99288.44;;;6.96;100.00
47738;BME280;33502;47.182;27.506;2023-03-26T04:57:29;99283.59;;;7.05;100.00
47738;BME280;33502;47.182;27.506;2023-03-26T05:00:08;99284.69;;;7.20;100.00
47738;BME280;33502;47.182;27.506;2023-03-26T05:02:46;99290.81;;;7.40;100.00
47738;BME280;33502;47.182;27.506;2023-03-26T05:05:15;99289.69;;;7.64;100.00
47738;BME280;33502;47.182;27.506;2023-03-26T05:07:42;99301.47;;;7.94;100.00
47738;BME280;33502;47.182;27.506;2023-03-26T05:10:11;99302.34;;;8.29;100.00
47738;BME280;33502;47.182;27.506;2023-03-26T05:12:48;99295.72;;;8.74;100.00
47738;BME280;33502;47.182;27.506;2023-03-26T05:15:18;99301.28;;;9.03;100.00
47738;BME280;33502;47.182;27.506;2023-03-26T05:17:53;99300.91;;;9.27;100.00
47738;BME280;33502;47.182;27.506;2023-03-26T05:20:48;99300.41;;;10.31;100.00
47738;BME280;33502;47.182;27.506;2023-03-26T05:23:14;99304.25;;;11.44;100.00
47738;BME280;33502;47.182;27.506;2023-03-26T05:25:43;99303.75;;;11.51;100.00
47738;BME280;33502;47.182;27.506;2023-03-26T05:28:15;99304.31;;;10.70;100.00
47738;BME280;33502;47.182;27.506;2023-03-26T05:30:51;99306.00;;;10.41;100.00
47738;BME280;33502;47.182;27.506;2023-03-26T05:33:18;99306.44;;;10.64;100.00
47738;BME280;33502;47.182;27.506;2023-03-26T05:35:57;99307.94;;;10.84;100.00
47738;BME280;33502;47.182;27.506;2023-03-26T05:38:23;99309.84;;;11.39;100.00
47738;BME280;33502;47.182;27.506;2023-03-26T05:40:49;99314.84;;;11.01;100.00
47738;BME280;33502;47.182;27.506;2023-03-26T05:43:18;99307.13;;;10.21;100.00
47738;BME280;33502;47.182;27.506;2023-03-26T05:45:48;99320.91;;;9.64;100.00
47738;BME280;33502;47.182;27.506;2023-03-26T05:48:21;99307.06;;;9.27;100.00
47738;BME280;33502;47.182;27.506;2023-03-26T05:50:48;99326.75;;;9.04;100.00
47738;BME280;33502;47.182;27.506;2023-03-26T05:53:14;99339.81;;;8.90;100.00
47738;BME280;33502;47.182;27.506;2023-03-26T05:55:46;99329.97;;;8.76;100.00
47738;BME280;33502;47.182;27.506;2023-03-26T05:58:33;99330.34;;;8.68;100.00
47738;BME280;33502;47.182;27.506;2023-03-26T06:01:31;99334.22;;;8.61;100.00
47738;BME280;33502;47.182;27.506;2023-03-26T06:04:16;99340.75;;;8.54;100.00
47738;BME280;33502;47.182;27.506;2023-03-26T06:06:57;99335.22;;;8.41;100.00
47738;BME280;33502;47.182;27.506;2023-03-26T06:09:24;99336.56;;;8.31;100.00
47738;BME280;33502;47.182;27.506;2023-03-26T06:11:49;99339.53;;;8.24;100.00
47738;BME280;33502;47.182;27.506;2023-03-26T06:14:16;99344.16;;;8.19;100.00
47738;BME280;33502;47.182;27.506;2023-03-26T06:17:01;99344.16;;;8.19;100.00
47738;BME280;33502;47.182;27.506;2023-03-26T06:19:33;99344.72;;;8.26;100.00
47738;BME280;33502;47.182;27.506;2023-03-26T06:22:08;99341.91;;;8.29;100.00
47738;BME280;33502;47.182;27.506;2023-03-26T06:24:54;99344.09;;;8.38;100.00
47738;BME280;33502;47.182;27.506;2023-03-26T06:27:34;99343.19;;;8.39;100.00
47738;BME280;33502;47.182;27.506;2023-03-26T06:30:29;99341.41;;;8.40;100.00
47738;BME280;33502;47.182;27.506;2023-03-26T06:33:11;99339.34;;;8.47;100.00
47738;BME280;33502;47.182;27.506;2023-03-26T06:35:44;99341.69;;;8.53;100.00
47738;BME280;33502;47.182;27.506;2023-03-26T06:38:11;99353.47;;;8.46;100.00
47738;BME280;33502;47.182;27.506;2023-03-26T06:40:37;99367.38;;;8.49;100.00
47738;BME280;33502;47.182;27.506;2023-03-26T06:43:17;99381.34;;;8.51;100.00
47738;BME280;33502;47.182;27.506;2023-03-26T06:45:55;99385.91;;;8.48;100.00
47738;BME280;33502;47.182;27.506;2023-03-26T06:48:39;99381.34;;;8.32;100.00
47738;BME280;33502;47.182;27.506;2023-03-26T06:51:12;99381.94;;;8.20;100.00
47738;BME280;33502;47.182;27.506;2023-03-26T06:53:56;99370.81;;;8.13;100.00
47738;BME280;33502;47.182;27.506;2023-03-26T06:57:00;99375.19;;;8.14;100.00
47738;BME280;33502;47.182;27.506;2023-03-26T07:00:02;99369.31;;;8.27;100.00
47738;BME280;33502;47.182;27.506;2023-03-26T07:02:46;99374.00;;;8.39;100.00
47738;BME280;33502;47.182;27.506;2023-03-26T07:05:31;99372.06;;;8.42;100.00
47738;BME280;33502;47.182;27.506;2023-03-26T07:08:22;99368.84;;;8.55;100.00
47738;BME280;33502;47.182;27.506;2023-03-26T07:11:07;99370.09;;;8.65;100.00
47738;BME280;33502;47.182;27.506;2023-03-26T07:13:50;99363.56;;;8.72;100.00
47738;BME280;33502;47.182;27.506;2023-03-26T07:16:34;99357.84;;;8.81;100.00
47738;BME280;33502;47.182;27.506;2023-03-26T07:19:15;99355.19;;;8.99;100.00
47738;BME280;33502;47.182;27.506;2023-03-26T07:21:41;99357.97;;;8.96;100.00
47738;BME280;33502;47.182;27.506;2023-03-26T07:24:21;99359.06;;;8.92;100.00
47738;BME280;33502;47.182;27.506;2023-03-26T07:27:05;99357.66;;;8.85;100.00
47738;BME280;33502;47.182;27.506;2023-03-26T07:29:48;99360.09;;;8.89;100.00
47738;BME280;33502;47.182;27.506;2023-03-26T07:38:50;99358.66;;;8.99;100.00
47738;BME280;33502;47.182;27.506;2023-03-26T07:41:54;99363.09;;;8.99;100.00
47738;BME280;33502;47.182;27.506;2023-03-26T07:47:33;99360.69;;;9.12;100.00
47738;BME280;33502;47.182;27.506;2023-03-26T07:50:25;99362.53;;;9.27;100.00
47738;BME280;33502;47.182;27.506;2023-03-26T07:53:26;99361.84;;;9.39;100.00
47738;BME280;33502;47.182;27.506;2023-03-26T08:04:37;99366.16;;;9.58;100.00
47738;BME280;33502;47.182;27.506;2023-03-26T08:07:37;99355.72;;;9.88;100.00
47738;BME280;33502;47.182;27.506;2023-03-26T08:26:04;99369.28;;;11.78;100.00
47738;BME280;33502;47.182;27.506;2023-03-26T08:31:03;99368.41;;;12.33;100.00
47738;BME280;33502;47.182;27.506;2023-03-26T08:33:29;99373.97;;;12.16;100.00
47738;BME280;33502;47.182;27.506;2023-03-26T08:35:55;99358.78;;;11.91;100.00
47738;BME280;33502;47.182;27.506;2023-03-26T08:38:24;99367.00;;;12.01;100.00
47738;BME280;33502;47.182;27.506;2023-03-26T08:43:51;99356.09;;;12.60;100.00
47738;BME280;33502;47.182;27.506;2023-03-26T09:18:16;99326.63;;;13.28;100.00
47738;BME280;33502;47.182;27.506;2023-03-26T09:28:41;99324.19;;;13.88;100.00
47738;BME280;33502;47.182;27.506;2023-03-26T09:31:26;99319.97;;;14.34;100.00
47738;BME280;33502;47.182;27.506;2023-03-26T09:47:34;99322.53;;;15.06;89.53
47738;BME280;33502;47.182;27.506;2023-03-26T09:50:18;99308.03;;;14.75;88.21
47738;BME280;33502;47.182;27.506;2023-03-26T09:52:56;99322.00;;;14.30;88.40
47738;BME280;33502;47.182;27.506;2023-03-26T10:03:44;99325.25;;;15.29;88.64
47738;BME280;33502;47.182;27.506;2023-03-26T10:09:17;99326.38;;;16.26;84.06
47738;BME280;33502;47.182;27.506;2023-03-26T10:11:55;99318.56;;;16.67;81.50
47738;BME280;33502;47.182;27.506;2023-03-26T10:14:28;99313.63;;;16.51;82.07
47738;BME280;33502;47.182;27.506;2023-03-26T10:21:55;99315.88;;;17.30;77.78
47738;BME280;33502;47.182;27.506;2023-03-26T10:24:28;99311.25;;;18.13;71.54
47738;BME280;33502;47.182;27.506;2023-03-26T10:32:24;99311.53;;;17.38;72.72
47738;BME280;33502;47.182;27.506;2023-03-26T10:52:56;99279.97;;;18.23;63.05
47738;BME280;33502;47.182;27.506;2023-03-26T10:55:29;99270.94;;;18.53;58.49
47738;BME280;33502;47.182;27.506;2023-03-26T10:58:07;99269.53;;;18.30;59.04
47738;BME280;33502;47.182;27.506;2023-03-26T11:00:42;99274.72;;;18.61;57.33
47738;BME280;33502;47.182;27.506;2023-03-26T11:08:28;99263.19;;;20.28;49.70
47738;BME280;33502;47.182;27.506;2023-03-26T11:13:41;99240.03;;;21.58;48.96
47738;BME280;33502;47.182;27.506;2023-03-26T11:21:32;99245.09;;;22.69;45.34
47738;BME280;33502;47.182;27.506;2023-03-26T11:32:02;99246.06;;;21.52;44.08
47738;BME280;33502;47.182;27.506;2023-03-26T11:34:32;99249.00;;;21.06;44.48
47738;BME280;33502;47.182;27.506;2023-03-26T11:36:59;99242.66;;;20.63;45.56
47738;BME280;33502;47.182;27.506;2023-03-26T11:39:26;99241.94;;;19.33;47.39
47738;BME280;33502;47.182;27.506;2023-03-26T11:44:50;99232.34;;;21.02;45.39
47738;BME280;33502;47.182;27.506;2023-03-26T11:47:18;99227.22;;;20.29;45.46
47738;BME280;33502;47.182;27.506;2023-03-26T11:49:45;99220.22;;;20.36;45.57
47738;BME280;33502;47.182;27.506;2023-03-26T11:52:12;99220.53;;;20.51;45.09
47738;BME280;33502;47.182;27.506;2023-03-26T11:54:39;99220.00;;;19.93;44.00
47738;BME280;33502;47.182;27.506;2023-03-26T11:57:09;99230.69;;;19.20;44.99
47738;BME280;33502;47.182;27.506;2023-03-26T12:04:37;99216.00;;;17.70;47.97
47738;BME280;33502;47.182;27.506;2023-03-26T12:07:15;99219.53;;;17.20;48.51
47738;BME280;33502;47.182;27.506;2023-03-26T12:09:57;99213.66;;;16.74;49.96
47738;BME280;33502;47.182;27.506;2023-03-26T12:12:27;99218.91;;;16.55;51.18
47738;BME280;33502;47.182;27.506;2023-03-26T12:14:53;99215.34;;;16.33;52.24
47738;BME280;33502;47.182;27.506;2023-03-26T12:17:37;99210.97;;;16.11;54.33
47738;BME280;33502;47.182;27.506;2023-03-26T12:20:49;99210.50;;;16.06;53.88
47738;BME280;33502;47.182;27.506;2023-03-26T12:22:54;99207.19;;;15.81;53.09
47738;BME280;33502;47.182;27.506;2023-03-26T12:25:29;99211.09;;;15.77;54.10
47738;BME280;33502;47.182;27.506;2023-03-26T12:27:59;99214.13;;;15.73;54.34
47738;BME280;33502;47.182;27.506;2023-03-26T12:33:05;99213.34;;;16.47;53.77
47738;BME280;33502;47.182;27.506;2023-03-26T12:35:34;99220.44;;;16.57;54.34
47738;BME280;33502;47.182;27.506;2023-03-26T12:40:46;99221.63;;;16.64;54.67
47738;BME280;33502;47.182;27.506;2023-03-26T12:43:27;99225.66;;;16.80;54.52
47738;BME280;33502;47.182;27.506;2023-03-26T12:45:54;99223.13;;;17.50;52.77
47738;BME280;33502;47.182;27.506;2023-03-26T12:48:20;99226.69;;;17.19;52.28
47738;BME280;33502;47.182;27.506;2023-03-26T12:51:10;99246.16;;;16.79;53.62
47738;BME280;33502;47.182;27.506;2023-03-26T13:01:53;99288.91;;;12.05;72.70
47738;BME280;33502;47.182;27.506;2023-03-26T13:06:52;99305.84;;;11.46;86.44
47738;BME280;33502;47.182;27.506;2023-03-26T13:15:14;99261.09;;;10.84;100.00
47738;BME280;33502;47.182;27.506;2023-03-26T13:22:49;99266.69;;;10.80;100.00
47738;BME280;33502;47.182;27.506;2023-03-26T13:30:19;99252.41;;;10.82;100.00
47738;BME280;33502;47.182;27.506;2023-03-26T13:35:26;99244.56;;;10.95;100.00
47738;BME280;33502;47.182;27.506;2023-03-26T13:40:51;99247.00;;;10.98;100.00
47738;BME280;33502;47.182;27.506;2023-03-26T13:48:23;99235.63;;;11.39;100.00
47738;BME280;33502;47.182;27.506;2023-03-26T13:50:54;99235.16;;;11.47;100.00
47738;BME280;33502;47.182;27.506;2023-03-26T13:53:26;99238.56;;;11.90;100.00
47738;BME280;33502;47.182;27.506;2023-03-26T13:55:54;99231.22;;;11.94;100.00
47738;BME280;33502;47.182;27.506;2023-03-26T13:58:35;99226.13;;;11.91;100.00
47738;BME280;33502;47.182;27.506;2023-03-26T14:03:35;99222.66;;;12.82;96.91
47738;BME280;33502;47.182;27.506;2023-03-26T14:06:17;99222.72;;;13.44;92.79
47738;BME280;33502;47.182;27.506;2023-03-26T14:08:46;99222.00;;;13.66;89.57
47738;BME280;33502;47.182;27.506;2023-03-26T14:14:10;99229.69;;;13.58;88.81
47738;BME280;33502;47.182;27.506;2023-03-26T14:16:40;99227.25;;;13.55;88.52
47738;BME280;33502;47.182;27.506;2023-03-26T14:19:22;99223.72;;;13.55;87.62
47738;BME280;33502;47.182;27.506;2023-03-26T14:24:52;99226.09;;;13.46;86.34
47738;BME280;33502;47.182;27.506;2023-03-26T14:27:26;99234.00;;;13.72;80.16
47738;BME280;33502;47.182;27.506;2023-03-26T14:30:03;99224.97;;;13.99;76.88
47738;BME280;33502;47.182;27.506;2023-03-26T14:48:25;99212.63;;;15.36;59.72
47738;BME280;33502;47.182;27.506;2023-03-26T14:53:43;99209.00;;;13.99;68.73
47738;BME280;33502;47.182;27.506;2023-03-26T15:01:19;99200.41;;;13.34;76.35
47738;BME280;33502;47.182;27.506;2023-03-26T15:26:54;99202.38;;;14.04;66.94
47738;BME280;33502;47.182;27.506;2023-03-26T15:43:18;99213.91;;;13.92;62.37
47738;BME280;33502;47.182;27.506;2023-03-26T15:55:39;99201.34;;;13.33;63.11
47738;BME280;33502;47.182;27.506;2023-03-26T15:58:11;99199.03;;;13.03;64.31
47738;BME280;33502;47.182;27.506;2023-03-26T16:00:51;99204.72;;;12.72;65.63
47738;BME280;33502;47.182;27.506;2023-03-26T16:03:38;99209.16;;;12.46;67.55
47738;BME280;33502;47.182;27.506;2023-03-26T16:06:23;99199.25;;;12.10;74.59
47738;BME280;33502;47.182;27.506;2023-03-26T16:11:41;99208.72;;;11.45;86.34
47738;BME280;33502;47.182;27.506;2023-03-26T16:16:54;99207.28;;;10.98;93.06
47738;BME280;33502;47.182;27.506;2023-03-26T16:21:53;99209.16;;;10.67;95.65
47738;BME280;33502;47.182;27.506;2023-03-26T16:24:21;99214.34;;;10.54;96.79
47738;BME280;33502;47.182;27.506;2023-03-26T16:29:20;99219.13;;;10.33;98.96
47738;BME280;33502;47.182;27.506;2023-03-26T16:34:48;99218.69;;;10.11;100.00
47738;BME280;33502;47.182;27.506;2023-03-26T16:40:48;99219.91;;;9.89;100.00
47738;BME280;33502;47.182;27.506;2023-03-26T16:50:20;99228.91;;;9.55;100.00
47738;BME280;33502;47.182;27.506;2023-03-26T16:52:55;99227.03;;;9.57;100.00
47738;BME280;33502;47.182;27.506;2023-03-26T16:58:02;99224.22;;;9.60;100.00
47738;BME280;33502;47.182;27.506;2023-03-26T17:06:44;99226.44;;;9.52;100.00
47738;BME280;33502;47.182;27.506;2023-03-26T17:11:45;99225.50;;;9.37;100.00
47738;BME280;33502;47.182;27.506;2023-03-26T17:14:20;99231.47;;;9.40;100.00
47738;BME280;33502;47.182;27.506;2023-03-26T17:19:43;99244.00;;;9.37;100.00
47738;BME280;33502;47.182;27.506;2023-03-26T17:25:43;99262.91;;;9.29;100.00
47738;BME280;33502;47.182;27.506;2023-03-26T17:35:49;99257.81;;;8.93;100.00
47738;BME280;33502;47.182;27.506;2023-03-26T17:40:53;99257.06;;;8.56;100.00
47738;BME280;33502;47.182;27.506;2023-03-26T17:48:36;99266.69;;;8.04;100.00
47738;BME280;33502;47.182;27.506;2023-03-26T17:53:45;99276.91;;;7.74;100.00
47738;BME280;33502;47.182;27.506;2023-03-26T17:56:13;99271.25;;;7.64;100.00
47738;BME280;33502;47.182;27.506;2023-03-26T17:58:44;99274.31;;;7.55;100.00
47738;BME280;33502;47.182;27.506;2023-03-26T18:03:49;99278.44;;;7.42;100.00
47738;BME280;33502;47.182;27.506;2023-03-26T18:16:36;99285.34;;;6.86;100.00
47738;BME280;33502;47.182;27.506;2023-03-26T18:19:24;99292.66;;;6.79;100.00
47738;BME280;33502;47.182;27.506;2023-03-26T18:21:53;99291.13;;;6.74;100.00
47738;BME280;33502;47.182;27.506;2023-03-26T18:24:23;99300.94;;;6.70;100.00
47738;BME280;33502;47.182;27.506;2023-03-26T18:26:51;99300.31;;;6.65;100.00
47738;BME280;33502;47.182;27.506;2023-03-26T18:31:55;99306.41;;;6.65;100.00
47738;BME280;33502;47.182;27.506;2023-03-26T18:34:22;99296.66;;;6.68;100.00
47738;BME280;33502;47.182;27.506;2023-03-26T18:36:57;99297.47;;;6.70;100.00
47738;BME280;33502;47.182;27.506;2023-03-26T18:39:25;99290.69;;;6.64;100.00
47738;BME280;33502;47.182;27.506;2023-03-26T18:41:51;99292.66;;;6.59;100.00
47738;BME280;33502;47.182;27.506;2023-03-26T18:44:17;99299.16;;;6.50;100.00
47738;BME280;33502;47.182;27.506;2023-03-26T18:46:43;99304.56;;;6.47;100.00
47738;BME280;33502;47.182;27.506;2023-03-26T18:49:10;99297.50;;;6.47;100.00
47738;BME280;33502;47.182;27.506;2023-03-26T18:51:36;99301.31;;;6.61;100.00
47738;BME280;33502;47.182;27.506;2023-03-26T18:54:02;99294.22;;;6.63;100.00
47738;BME280;33502;47.182;27.506;2023-03-26T18:56:36;99292.47;;;6.63;100.00
47738;BME280;33502;47.182;27.506;2023-03-26T18:59:04;99293.53;;;6.59;100.00
47738;BME280;33502;47.182;27.506;2023-03-26T19:01:31;99299.63;;;6.60;100.00
47738;BME280;33502;47.182;27.506;2023-03-26T19:03:57;99294.38;;;6.60;100.00
47738;BME280;33502;47.182;27.506;2023-03-26T19:06:24;99297.78;;;6.62;100.00
47738;BME280;33502;47.182;27.506;2023-03-26T19:08:50;99295.16;;;6.62;100.00
47738;BME280;33502;47.182;27.506;2023-03-26T19:11:17;99295.66;;;6.50;100.00
47738;BME280;33502;47.182;27.506;2023-03-26T19:13:45;99294.34;;;6.39;100.00
47738;BME280;33502;47.182;27.506;2023-03-26T19:16:19;99300.59;;;6.37;100.00
47738;BME280;33502;47.182;27.506;2023-03-26T19:18:46;99306.25;;;6.27;100.00
47738;BME280;33502;47.182;27.506;2023-03-26T19:21:12;99303.72;;;6.24;100.00
47738;BME280;33502;47.182;27.506;2023-03-26T19:23:39;99304.66;;;6.23;100.00
47738;BME280;33502;47.182;27.506;2023-03-26T19:26:09;99304.59;;;6.25;100.00
47738;BME280;33502;47.182;27.506;2023-03-26T19:28:39;99312.50;;;6.25;100.00
47738;BME280;33502;47.182;27.506;2023-03-26T19:31:10;99308.47;;;6.16;100.00
47738;BME280;33502;47.182;27.506;2023-03-26T19:33:42;99303.25;;;6.15;100.00
47738;BME280;33502;47.182;27.506;2023-03-26T19:39:23;99293.59;;;5.93;100.00
47738;BME280;33502;47.182;27.506;2023-03-26T19:41:24;99289.63;;;5.83;100.00